Time;durP1;ratioP1;P1;durP2;ratioP2;P2;SDS_P1;SDS_P2;PMS_P1;PMS_P2;Temp;Humidity;BMP_temperature;BMP_pressure;BME280_temperature;BME280_humidity;BME280_pressure;Samples;Min_cycle;Max_cycle;Signal;HPM_P1;HPM_P2
2023/09/28 00:32:35;;;;;;;16.77;6.10;;;9.60;99.90;;;;;;1986352;71;27170;-92
2023/09/28 00:38:16;;;;;;;25.53;6.97;;;9.20;99.90;;;;;;1943742;72;27320;-91
2023/09/28 00:41:05;;;;;;;26.63;7.50;;;9.20;99.90;;;;;;1918751;73;25299;-91
2023/09/28 00:43:55;;;;;;;23.50;7.03;;;9.30;99.90;;;;;;1897688;74;25263;-91
2023/09/28 00:46:44;;;;;;;25.40;8.10;;;9.20;99.90;;;;;;1863430;75;25276;-91
2023/09/28 00:49:33;;;;;;;26.37;7.53;;;9.20;99.90;;;;;;1886109;74;25295;-91
2023/09/28 00:52:23;;;;;;;29.07;7.40;;;9.30;99.90;;;;;;1907460;74;25287;-91
2023/09/28 00:55:15;;;;;;;28.37;7.10;;;9.20;99.90;;;;;;1859360;76;25238;-91
2023/09/28 00:58:05;;;;;;;31.87;7.50;;;9.20;99.90;;;;;;1889933;74;25776;-91
2023/09/28 01:00:53;;;;;;;20.93;7.50;;;9.20;99.90;;;;;;1892876;75;26115;-91
2023/09/28 01:03:42;;;;;;;19.60;7.07;;;9.30;99.90;;;;;;1905380;74;25228;-91
2023/09/28 01:09:24;;;;;;;20.43;6.70;;;9.50;99.90;;;;;;1946499;72;27167;-91
2023/09/28 01:12:13;;;;;;;20.20;6.27;;;9.60;99.90;;;;;;1914773;73;25700;-90
2023/09/28 01:15:03;;;;;;;19.63;6.97;;;9.60;99.90;;;;;;1921808;73;25333;-91
2023/09/28 01:17:52;;;;;;;23.07;7.03;;;9.60;99.90;;;;;;1922475;73;25231;-90
2023/09/28 01:20:43;;;;;;;30.00;6.67;;;9.50;99.90;;;;;;1931092;73;25575;-91
2023/09/28 01:23:31;;;;;;;24.33;6.83;;;9.50;99.90;;;;;;1917516;73;25253;-91
2023/09/28 01:28:59;;;;;;;24.60;6.93;;;9.50;99.90;;;;;;1939734;72;28079;-91
2023/09/28 01:31:48;;;;;;;25.80;7.80;;;9.50;99.90;;;;;;1912029;73;25730;-90
2023/09/28 01:34:37;;;;;;;16.03;7.33;;;9.50;99.90;;;;;;1919482;73;25232;-91
2023/09/28 01:37:30;;;;;;;23.67;7.30;;;9.50;99.90;;;;;;1946727;73;25245;-91
2023/09/28 01:40:20;;;;;;;15.63;6.47;;;9.50;99.90;;;;;;1946695;73;25243;-90
2023/09/28 01:43:09;;;;;;;26.53;7.60;;;9.40;99.90;;;;;;1934170;73;25295;-90
2023/09/28 01:48:48;;;;;;;21.20;6.87;;;9.40;99.90;;;;;;1938468;72;27036;-91
2023/09/28 02:16:04;;;;;;;16.73;6.23;;;9.40;99.90;;;;;;1934878;72;27001;-91
2023/09/28 02:32:33;;;;;;;245.83;13.10;;;8.90;99.90;;;;;;1910612;74;26803;-91
2023/09/28 02:38:02;;;;;;;131.53;11.60;;;9.20;99.90;;;;;;1876468;75;27172;-91
2023/09/28 02:40:51;;;;;;;112.43;9.87;;;9.20;99.90;;;;;;1805761;78;25356;-91
2023/09/28 02:43:40;;;;;;;171.73;12.23;;;9.30;99.90;;;;;;1785378;79;25267;-91
2023/09/28 03:03:06;;;;;;;48.80;11.93;;;9.80;99.90;;;;;;1939247;72;27008;-90
2023/09/28 03:05:51;;;;;;;84.67;13.87;;;9.80;99.90;;;;;;1935786;73;25290;-90
2023/09/28 03:08:40;;;;;;;39.33;11.70;;;9.90;99.90;;;;;;1922680;73;25330;-91
2023/09/28 03:11:29;;;;;;;49.20;12.60;;;9.90;99.90;;;;;;1936917;73;25294;-90
2023/09/28 03:14:19;;;;;;;61.67;12.53;;;9.90;99.90;;;;;;1939632;72;25201;-90
2023/09/28 03:17:07;;;;;;;85.00;12.83;;;10.00;99.90;;;;;;1922265;73;25292;-90
2023/09/28 03:19:56;;;;;;;150.10;15.30;;;10.00;99.90;;;;;;1919164;72;25289;-90
2023/09/28 03:22:46;;;;;;;181.07;17.10;;;10.10;99.90;;;;;;1939996;73;25285;-90
2023/09/28 03:41:55;;;;;;;166.17;19.33;;;10.90;99.90;;;;;;1930792;72;27656;-92
2023/09/28 03:44:44;;;;;;;228.77;23.47;;;10.80;99.90;;;;;;1909327;74;25783;-92
2023/09/28 03:47:32;;;;;;;318.63;24.07;;;10.80;99.90;;;;;;1897507;74;25207;-92
2023/09/28 03:50:23;;;;;;;201.13;20.40;;;10.80;99.90;;;;;;1910801;74;25241;-92
2023/09/28 03:53:12;;;;;;;249.83;23.23;;;10.70;99.90;;;;;;1913767;74;25226;-91
2023/09/28 03:56:01;;;;;;;286.77;22.37;;;10.70;99.90;;;;;;1909963;75;25781;-92
2023/09/28 04:12:35;;;;;;;261.07;52.77;;;10.90;99.90;;;;;;1991220;71;26413;-91
2023/09/28 04:18:16;;;;;;;251.47;47.90;;;12.70;99.90;;;;;;1939855;72;27090;-90
2023/09/28 04:21:04;;;;;;;216.13;42.83;;;12.90;99.90;;;;;;1909297;73;25303;-91
2023/09/28 04:23:54;;;;;;;178.53;39.53;;;13.00;99.90;;;;;;1917174;73;25260;-91
2023/09/28 04:26:42;;;;;;;203.77;41.33;;;13.00;99.90;;;;;;1938109;73;25636;-91
2023/09/28 04:29:31;;;;;;;215.73;39.60;;;13.00;99.90;;;;;;1922072;73;25270;-91
2023/09/28 04:32:20;;;;;;;171.20;32.57;;;13.00;99.90;;;;;;1938835;73;25233;-91
2023/09/28 04:37:54;;;;;;;184.17;38.07;;;13.00;99.90;;;;;;1949713;72;28088;-91
2023/09/28 04:40:43;;;;;;;181.00;36.93;;;13.00;99.90;;;;;;1904258;75;25319;-91
2023/09/28 04:43:33;;;;;;;152.73;33.67;;;13.00;99.90;;;;;;1923383;73;26066;-91
2023/09/28 05:00:48;;;;;;;147.70;37.03;;;12.90;99.90;;;;;;1918971;73;27059;-90
2023/09/28 05:59:30;;;;;;;20.83;9.13;;;12.60;99.90;;;;;;1987930;71;27031;-91
2023/09/28 06:02:20;;;;;;;40.30;18.63;;;12.60;99.90;;;;;;1930106;73;25239;-90
2023/09/28 06:07:56;;;;;;;37.00;15.63;;;12.70;99.90;;;;;;1942622;72;27374;-91
2023/09/28 06:10:48;;;;;;;35.60;18.83;;;12.70;99.90;;;;;;1931702;73;25278;-91
2023/09/28 06:27:01;;;;;;;33.90;17.40;;;12.70;99.90;;;;;;1935576;72;27111;-91
2023/09/28 06:43:21;;;;;;;36.53;16.70;;;12.70;99.90;;;;;;1913837;72;27265;-91
2023/09/28 06:46:11;;;;;;;27.30;14.60;;;13.00;99.90;;;;;;1881839;75;25333;-91
2023/09/28 06:51:45;;;;;;;37.87;19.07;;;13.20;99.90;;;;;;1939385;72;27117;-90
2023/09/28 06:54:34;;;;;;;33.37;17.07;;;13.20;99.90;;;;;;1918614;73;25332;-91
2023/09/28 06:57:23;;;;;;;32.20;18.33;;;13.30;99.90;;;;;;1924043;73;25236;-91
2023/09/28 07:00:16;;;;;;;33.23;16.97;;;13.30;99.90;;;;;;1926418;73;25263;-90
2023/09/28 07:03:05;;;;;;;26.73;14.97;;;13.30;99.90;;;;;;1914937;73;25344;-91
2023/09/28 07:05:54;;;;;;;28.97;16.07;;;13.40;99.90;;;;;;1914370;73;25305;-90
2023/09/28 07:08:42;;;;;;;26.37;14.50;;;13.40;99.90;;;;;;1914169;73;25320;-91
2023/09/28 07:11:31;;;;;;;29.13;14.80;;;13.50;99.90;;;;;;1926627;73;25844;-90
2023/09/28 07:14:19;;;;;;;23.10;10.77;;;13.50;99.90;;;;;;1919290;73;25230;-90
2023/09/28 07:17:07;;;;;;;24.50;13.20;;;13.60;99.90;;;;;;1921971;73;25280;-90
2023/09/28 07:19:56;;;;;;;25.00;13.37;;;13.60;99.90;;;;;;1915089;73;25218;-90
2023/09/28 07:22:46;;;;;;;24.63;13.80;;;13.70;99.90;;;;;;1919964;73;25210;-90
2023/09/28 07:25:34;;;;;;;26.73;15.47;;;13.70;99.90;;;;;;1927473;73;25802;-90
2023/09/28 07:28:23;;;;;;;29.83;14.77;;;13.80;99.90;;;;;;1914513;75;25213;-90
2023/09/28 07:31:12;;;;;;;26.33;13.10;;;13.90;99.90;;;;;;1915254;75;25533;-90
2023/09/28 07:34:01;;;;;;;26.63;14.30;;;13.90;99.90;;;;;;1931518;73;25204;-90
2023/09/28 07:36:50;;;;;;;19.93;11.90;;;14.00;99.90;;;;;;1915038;73;25235;-90
2023/09/28 07:39:39;;;;;;;31.77;13.13;;;14.10;99.90;;;;;;1913767;74;25223;-90
2023/09/28 07:42:28;;;;;;;24.37;11.60;;;14.20;99.90;;;;;;1895150;73;25346;-90
2023/09/28 07:45:18;;;;;;;24.40;11.63;;;14.30;99.90;;;;;;1893415;74;25602;-90
2023/09/28 07:51:02;;;;;;;17.40;9.20;;;14.50;99.90;;;;;;1951645;72;27315;-91
2023/09/28 07:53:51;;;;;;;20.17;11.40;;;14.60;99.90;;;;;;1914754;73;25223;-91
2023/09/28 07:56:39;;;;;;;21.77;10.83;;;14.60;99.90;;;;;;1923166;73;25260;-91
2023/09/28 07:59:28;;;;;;;15.83;9.90;;;14.70;99.90;;;;;;1915908;73;25235;-90
2023/09/28 08:02:17;;;;;;;23.73;10.83;;;14.70;99.90;;;;;;1938248;73;25300;-90
2023/09/28 08:05:08;;;;;;;22.37;9.80;;;14.80;99.90;;;;;;1921129;73;25762;-90
2023/09/28 08:07:57;;;;;;;24.23;9.17;;;14.90;99.90;;;;;;1918940;73;25330;-90
2023/09/28 08:13:36;;;;;;;18.70;8.17;;;15.10;99.90;;;;;;1956712;72;26978;-91
2023/09/28 08:16:27;;;;;;;15.40;9.40;;;15.20;99.90;;;;;;1906881;73;25294;-90
2023/09/28 08:19:16;;;;;;;12.13;7.50;;;15.20;99.90;;;;;;1948162;73;25206;-90
2023/09/28 08:22:05;;;;;;;15.73;8.63;;;15.20;99.90;;;;;;1940957;73;25223;-90
2023/09/28 08:27:48;;;;;;;25.77;8.90;;;15.00;99.90;;;;;;1942612;72;27094;-90
2023/09/28 08:30:39;;;;;;;12.17;8.30;;;15.10;99.90;;;;;;1923170;73;25197;-90
2023/09/28 08:33:27;;;;;;;16.80;9.07;;;15.10;99.90;;;;;;1897977;75;25682;-90
2023/09/28 08:36:15;;;;;;;13.27;7.03;;;15.20;99.90;;;;;;1849012;76;25345;-91
2023/09/28 08:39:06;;;;;;;15.17;9.13;;;15.20;99.90;;;;;;1931548;73;25541;-90
2023/09/28 08:41:58;;;;;;;14.20;6.67;;;15.20;99.90;;;;;;1916140;73;25328;-90
2023/09/28 08:58:32;;;;;;;18.43;8.83;;;15.10;99.90;;;;;;1928192;74;27033;-90
2023/09/28 09:04:08;;;;;;;10.77;7.70;;;15.80;99.90;;;;;;1938935;72;27064;-90
2023/09/28 09:06:57;;;;;;;14.30;7.47;;;15.80;99.90;;;;;;1917390;73;25800;-90
2023/09/28 09:09:47;;;;;;;11.80;6.83;;;15.90;99.90;;;;;;1915418;73;25277;-90
2023/09/28 09:12:36;;;;;;;21.73;9.00;;;16.00;99.90;;;;;;1937603;73;25258;-90
2023/09/28 09:15:25;;;;;;;14.20;8.83;;;16.00;99.90;;;;;;1918557;73;25230;-90
2023/09/28 09:18:19;;;;;;;14.10;7.23;;;16.10;99.90;;;;;;1921564;73;25675;-90
2023/09/28 09:21:07;;;;;;;13.20;8.10;;;16.20;99.90;;;;;;1923877;73;25747;-90
2023/09/28 09:24:10;;;;;;;13.93;7.90;;;16.20;99.90;;;;;;1924609;73;25233;-90
2023/09/28 09:26:59;;;;;;;15.43;8.07;;;16.20;99.90;;;;;;1922701;73;25490;-91
2023/09/28 09:29:48;;;;;;;11.73;6.90;;;16.40;99.90;;;;;;1918576;73;25213;-91
2023/09/28 09:32:40;;;;;;;13.60;8.57;;;16.40;99.90;;;;;;1929979;73;25743;-90
2023/09/28 09:35:30;;;;;;;11.73;8.27;;;16.40;99.90;;;;;;1919384;73;25185;-91
2023/09/28 09:41:11;;;;;;;17.17;8.17;;;16.40;99.90;;;;;;1951383;72;27109;-90
2023/09/28 10:10:04;;;;;;;13.43;9.30;;;16.40;99.90;;;;;;1861808;74;26695;-91
2023/09/28 10:17:50;;;;;;;11.43;8.30;;;16.60;99.90;;;;;;1943610;71;26843;-90
2023/09/28 10:20:38;;;;;;;14.00;8.30;;;16.60;99.90;;;;;;1913621;73;25323;-90
2023/09/28 10:23:28;;;;;;;10.67;7.07;;;16.80;99.90;;;;;;1931204;73;25264;-90
2023/09/28 10:26:18;;;;;;;14.67;7.97;;;16.90;99.90;;;;;;1943756;73;25550;-90
2023/09/28 10:55:43;;;;;;;15.30;7.77;;;16.90;99.90;;;;;;1950530;72;26880;-90
2023/09/28 10:58:31;;;;;;;8.70;6.70;;;17.60;99.90;;;;;;1944954;72;25260;-91
2023/09/28 11:01:21;;;;;;;9.37;7.03;;;17.60;99.90;;;;;;1938976;72;25307;-90
2023/09/28 11:04:09;;;;;;;11.83;7.30;;;17.60;99.90;;;;;;1948833;73;25911;-90
2023/09/28 11:07:00;;;;;;;9.60;7.17;;;17.70;99.90;;;;;;1949438;72;25213;-90
2023/09/28 11:09:53;;;;;;;10.80;7.73;;;17.70;99.90;;;;;;1989083;71;25352;-91
2023/09/28 11:12:43;;;;;;;9.63;7.03;;;17.80;99.90;;;;;;1952582;72;25212;-90
2023/09/28 11:15:32;;;;;;;12.13;7.37;;;17.90;99.90;;;;;;1955995;72;25263;-91
2023/09/28 11:18:24;;;;;;;8.70;7.50;;;17.70;99.90;;;;;;1954563;72;25676;-90
2023/09/28 11:21:13;;;;;;;10.43;7.53;;;17.60;99.90;;;;;;1962811;72;25195;-91
2023/09/28 11:24:03;;;;;;;17.40;7.93;;;17.70;99.90;;;;;;1986438;71;25736;-91
2023/09/28 11:26:52;;;;;;;9.83;5.83;;;17.80;99.90;;;;;;2008804;71;25103;-91
2023/09/28 11:29:41;;;;;;;11.07;7.07;;;18.00;99.90;;;;;;1995185;71;25187;-91
2023/09/28 11:46:23;;;;;;;11.30;7.83;;;18.00;99.90;;;;;;2007345;71;26460;-90
2023/09/28 12:15:54;;;;;;;9.47;6.93;;;18.60;99.90;;;;;;1917708;73;27148;-91
2023/09/28 12:21:34;;;;;;;11.13;8.10;;;18.70;99.90;;;;;;1953265;72;26753;-91
2023/09/28 12:24:28;;;;;;;13.93;8.40;;;18.70;99.90;;;;;;1923026;73;25291;-91
2023/09/28 12:27:14;;;;;;;12.50;7.77;;;18.80;99.90;;;;;;1921431;73;25205;-91
2023/09/28 12:57:25;;;;;;;11.73;8.73;;;18.60;99.90;;;;;;1927133;74;26282;-90
2023/09/28 13:14:58;;;;;;;11.20;9.07;;;18.90;99.90;;;;;;1919245;74;27520;-91
2023/09/28 13:20:33;;;;;;;16.83;9.33;;;19.20;99.90;;;;;;1939741;72;26908;-91
2023/09/28 13:23:22;;;;;;;14.53;9.30;;;19.40;99.90;;;;;;1921472;74;25283;-90
2023/09/28 13:41:09;;;;;;;13.83;9.93;;;19.30;99.90;;;;;;1921751;73;28299;-89
2023/09/28 13:57:54;;;;;;;15.77;10.07;;;19.00;99.90;;;;;;1928580;73;26838;-91
2023/09/28 14:18:10;;;;;;;16.00;10.17;;;19.30;99.90;;;;;;1956364;72;27515;-91
2023/09/28 14:20:58;;;;;;;16.20;11.40;;;19.30;99.90;;;;;;1889821;74;25284;-90
2023/09/28 14:49:00;;;;;;;25.57;13.47;;;19.10;99.90;;;;;;1921430;72;26951;-90
2023/09/28 15:05:33;;;;;;;18.80;13.37;;;18.90;99.90;;;;;;1911970;74;26415;-90
2023/09/28 15:11:21;;;;;;;22.43;12.93;;;18.70;99.90;;;;;;1945311;72;27142;-91
2023/09/28 15:14:10;;;;;;;20.70;13.33;;;18.70;99.90;;;;;;1922962;73;25306;-90
2023/09/28 15:16:58;;;;;;;26.10;12.77;;;18.60;99.90;;;;;;1859786;76;25239;-90
2023/09/28 15:19:47;;;;;;;23.40;13.03;;;18.50;99.90;;;;;;1930981;73;25755;-90
2023/09/28 15:22:35;;;;;;;21.20;12.67;;;18.60;99.90;;;;;;1931104;73;25336;-90
2023/09/28 15:28:16;;;;;;;19.13;12.33;;;18.70;99.90;;;;;;1955358;72;26987;-90
2023/09/28 15:31:05;;;;;;;20.63;12.80;;;18.60;99.90;;;;;;1915974;73;26131;-91
2023/09/28 15:33:54;;;;;;;25.07;13.47;;;18.50;99.90;;;;;;1921467;73;26201;-90
2023/09/28 15:36:42;;;;;;;20.00;13.10;;;18.50;99.90;;;;;;1929016;73;25217;-91
2023/09/28 15:39:31;;;;;;;18.27;13.00;;;18.40;99.90;;;;;;1918467;73;25209;-90
2023/09/28 15:55:48;;;;;;;34.07;16.47;;;18.40;99.90;;;;;;1997582;71;27657;-90
2023/09/28 16:01:30;;;;;;;25.10;13.63;;;18.10;99.90;;;;;;1944786;72;27785;-91
2023/09/28 16:04:19;;;;;;;23.63;12.60;;;18.00;99.90;;;;;;1931317;73;25285;-90
2023/09/28 16:07:08;;;;;;;22.60;13.77;;;18.00;99.90;;;;;;1920879;73;25226;-90
2023/09/28 16:09:56;;;;;;;23.60;13.43;;;18.00;99.90;;;;;;1934285;73;25802;-90
2023/09/28 16:12:46;;;;;;;20.43;12.90;;;17.90;99.90;;;;;;1918715;73;25299;-90
2023/09/28 16:44:04;;;;;;;33.10;20.30;;;17.70;99.90;;;;;;1901939;71;27677;-90
2023/09/28 16:49:49;;;;;;;42.03;22.80;;;17.00;99.90;;;;;;1946620;72;27006;-91
2023/09/28 16:52:38;;;;;;;43.83;22.03;;;16.90;99.90;;;;;;1923379;73;25689;-90
2023/09/28 16:55:27;;;;;;;35.77;21.80;;;16.90;99.90;;;;;;1923276;73;25220;-90
2023/09/28 16:58:16;;;;;;;39.03;21.30;;;16.80;99.90;;;;;;1938801;73;25225;-90
2023/09/28 17:01:06;;;;;;;40.30;23.63;;;16.80;99.90;;;;;;1934873;73;25262;-91
2023/09/28 17:03:54;;;;;;;39.63;22.63;;;16.80;99.90;;;;;;1946737;73;25302;-90
2023/09/28 17:09:34;;;;;;;39.50;22.50;;;16.90;99.90;;;;;;1942030;72;27061;-91
2023/09/28 17:15:15;;;;;;;40.93;22.10;;;16.90;99.90;;;;;;1944557;72;28465;-89
2023/09/28 17:18:04;;;;;;;34.97;20.80;;;17.00;99.90;;;;;;1928933;73;25563;-89
2023/09/28 17:20:54;;;;;;;43.20;21.47;;;17.00;99.90;;;;;;1915574;73;25219;-90
2023/09/28 17:23:42;;;;;;;35.37;22.00;;;17.00;99.90;;;;;;1944794;73;25219;-90
2023/09/28 17:26:30;;;;;;;42.90;22.90;;;16.90;99.90;;;;;;1928463;73;25221;-90
2023/09/28 17:29:19;;;;;;;49.53;23.03;;;16.90;99.90;;;;;;1933279;73;26295;-90
2023/09/28 18:13:18;;;;;;;34.67;17.57;;;17.10;99.90;;;;;;1845728;76;27158;-90
2023/09/28 18:19:26;;;;;;;34.37;14.93;;;16.50;99.90;;;;;;1945790;72;27125;-92
2023/09/28 18:22:15;;;;;;;34.23;14.77;;;16.50;99.90;;;;;;1924388;73;25303;-90
2023/09/28 18:25:07;;;;;;;37.53;13.63;;;16.60;99.90;;;;;;1920216;73;25287;-90
2023/09/28 18:27:58;;;;;;;28.03;12.67;;;16.50;99.90;;;;;;1918246;73;25319;-91
2023/09/28 18:30:57;;;;;;;38.37;13.27;;;16.40;99.90;;;;;;1916553;73;25303;-90
2023/09/28 18:33:59;;;;;;;24.67;10.10;;;16.40;99.90;;;;;;1922646;73;25287;-91
2023/09/28 18:36:47;;;;;;;21.87;6.57;;;16.40;99.90;;;;;;1926387;73;25931;-91
2023/09/28 18:52:54;;;;;;;13.47;3.33;;;16.30;99.90;;;;;;1908594;74;27237;-90
2023/09/28 19:08:54;;;;;;;18.53;3.70;;;16.10;99.90;;;;;;1864759;75;27437;-91
2023/09/28 19:11:46;;;;;;;12.03;2.77;;;15.80;99.90;;;;;;1873555;75;25864;-91
2023/09/28 19:56:50;;;;;;;19.47;3.20;;;15.70;99.90;;;;;;1934465;73;27465;-90
2023/09/28 20:34:06;;;;;;;29.30;3.90;;;15.00;99.90;;;;;;1928729;73;25245;-91
2023/09/28 21:01:46;;;;;;;27.33;3.80;;;14.90;99.90;;;;;;1892210;74;27232;-91
2023/09/28 21:35:11;;;;;;;28.97;4.67;;;15.10;99.90;;;;;;1946296;72;27626;-90
2023/09/28 21:40:59;;;;;;;41.80;5.27;;;15.00;99.90;;;;;;1946313;72;27991;-91
2023/09/28 21:43:50;;;;;;;28.60;4.43;;;15.00;99.90;;;;;;1895762;75;25320;-90
2023/09/28 21:46:39;;;;;;;27.97;4.50;;;15.00;99.90;;;;;;1894408;75;25749;-91
2023/09/28 21:49:30;;;;;;;34.53;4.67;;;14.90;99.90;;;;;;1883571;75;26082;-91
2023/09/28 22:46:28;;;;;;;38.30;4.27;;;15.20;99.90;;;;;;1990349;71;27523;-91
2023/09/28 22:52:35;;;;;;;36.33;4.77;;;15.40;99.90;;;;;;1959266;72;28267;-91
2023/09/28 22:58:46;;;;;;;30.30;4.90;;;15.50;99.90;;;;;;1941931;72;29163;-91
2023/09/28 23:01:36;;;;;;;31.80;4.20;;;15.50;99.90;;;;;;1928317;74;25308;-91
2023/09/28 23:17:54;;;;;;;30.30;4.53;;;15.40;99.90;;;;;;1892775;72;27194;-91
